createdAt,value
2022-09-22T00:01:13.377Z,27.93
2022-09-22T00:04:29.931Z,26.43
2022-09-22T00:07:45.879Z,25.08
2022-09-22T00:11:17.970Z,24.38
2022-09-22T00:14:35.517Z,25.50
2022-09-22T00:17:52.384Z,26.43
2022-09-22T00:21:13.434Z,27.75
2022-09-22T00:24:32.032Z,28.68
2022-09-22T00:27:49.928Z,29.20
2022-09-22T00:31:08.051Z,25.93
2022-09-22T00:34:27.259Z,27.85
2022-09-22T00:37:43.442Z,29.15
2022-09-22T00:41:01.629Z,28.95
2022-09-22T00:44:44.634Z,26.95
2022-09-22T00:48:00.774Z,29.05
2022-09-22T00:51:21.180Z,29.48
2022-09-22T00:54:37.520Z,29.10
2022-09-22T00:57:55.596Z,30.30
2022-09-22T01:01:12.526Z,28.40
2022-09-22T01:04:28.813Z,28.93
2022-09-22T01:07:45.505Z,30.05
2022-09-22T01:11:02.644Z,27.20
2022-09-22T01:14:24.643Z,28.28
2022-09-22T01:17:47.378Z,28.43
2022-09-22T01:21:29.567Z,27.03
2022-09-22T01:25:07.011Z,26.90
2022-09-22T01:28:59.866Z,29.65
2022-09-22T01:32:21.989Z,28.60
2022-09-22T01:35:45.397Z,30.78
2022-09-22T01:39:11.045Z,25.23
2022-09-22T01:42:32.541Z,26.48
2022-09-22T01:45:51.957Z,27.30
2022-09-22T01:49:12.105Z,27.55
2022-09-22T01:52:32.874Z,27.43
2022-09-22T01:55:51.998Z,26.00
2022-09-22T01:59:12.006Z,25.85
2022-09-22T02:02:33.195Z,29.63
2022-09-22T02:05:54.768Z,25.75
2022-09-22T02:09:15.071Z,26.73
2022-09-22T02:12:31.262Z,27.55
2022-09-22T02:16:05.566Z,26.90
2022-09-22T02:19:25.971Z,26.75
2022-09-22T02:22:42.376Z,29.28
2022-09-22T02:25:59.559Z,28.80
2022-09-22T02:29:18.584Z,29.70
2022-09-22T02:32:37.093Z,27.33
2022-09-22T02:35:58.508Z,30.13
2022-09-22T02:39:20.174Z,28.40
2022-09-22T02:42:40.855Z,27.13
2022-09-22T02:46:01.108Z,28.43
2022-09-22T02:49:21.783Z,26.23
2022-09-22T02:52:37.726Z,28.13
2022-09-22T02:55:54.803Z,25.60
2022-09-22T02:59:11.507Z,25.93
2022-09-22T03:02:27.758Z,26.13
2022-09-22T03:05:44.340Z,29.98
2022-09-22T03:09:00.573Z,29.33
2022-09-22T03:12:17.032Z,27.38
2022-09-22T03:15:33.431Z,25.70
2022-09-22T03:18:49.467Z,25.43
2022-09-22T03:22:05.423Z,25.73
2022-09-22T03:25:21.768Z,23.48
2022-09-22T03:28:37.714Z,24.65
2022-09-22T03:31:53.930Z,25.03
2022-09-22T03:35:10.542Z,24.93
2022-09-22T03:38:26.437Z,23.78
2022-09-22T03:41:42.744Z,24.85
2022-09-22T03:44:59.435Z,26.58
2022-09-22T03:48:15.873Z,22.25
2022-09-22T03:51:35.158Z,25.13
2022-09-22T03:58:04.637Z,21.28
2022-09-22T04:01:21.326Z,24.45
2022-09-22T04:04:38.451Z,20.80
2022-09-22T04:07:54.602Z,22.43
2022-09-22T04:11:11.980Z,22.55
2022-09-22T04:14:28.311Z,22.93
2022-09-22T04:17:46.526Z,21.95
2022-09-22T04:21:05.867Z,21.70
2022-09-22T04:27:40.539Z,20.70
2022-09-22T04:31:02.614Z,20.63
2022-09-22T04:34:18.967Z,21.38
2022-09-22T04:37:36.283Z,22.70
2022-09-22T04:40:52.440Z,20.43
2022-09-22T04:44:23.809Z,21.70
2022-09-22T04:47:41.002Z,20.65
2022-09-22T04:50:56.981Z,19.50
2022-09-22T04:54:16.606Z,18.85
2022-09-22T04:57:32.584Z,20.60
2022-09-22T05:00:48.799Z,19.93
2022-09-22T05:04:04.766Z,20.18
2022-09-22T05:07:20.861Z,18.23
2022-09-22T05:10:38.097Z,18.25
2022-09-22T05:13:55.884Z,18.53
2022-09-22T05:17:12.109Z,18.48
2022-09-22T05:20:29.118Z,18.33
2022-09-22T05:23:45.636Z,22.75
2022-09-22T05:27:01.741Z,27.60
2022-09-22T05:30:20.126Z,20.88
2022-09-22T05:33:38.075Z,21.77
2022-09-22T05:36:57.250Z,21.33
2022-09-22T05:40:15.933Z,21.58
2022-09-22T05:43:32.410Z,20.63
2022-09-22T05:46:48.564Z,18.35
2022-09-22T05:50:04.764Z,20.38
2022-09-22T05:53:23.344Z,21.28
2022-09-22T05:56:40.775Z,21.03
2022-09-22T05:59:56.797Z,20.95
2022-09-22T06:03:14.109Z,18.90
2022-09-22T06:06:30.320Z,18.43
2022-09-22T06:09:46.486Z,17.03
2022-09-22T06:13:08.852Z,19.95
2022-09-22T06:16:25.547Z,13.25
2022-09-22T06:19:41.675Z,14.53
2022-09-22T06:22:57.819Z,11.68
2022-09-22T06:26:14.116Z,12.60
2022-09-22T06:29:30.898Z,11.20
2022-09-22T06:32:49.269Z,11.13
2022-09-22T06:36:06.860Z,10.85
2022-09-22T06:39:23.187Z,10.28
2022-09-22T06:42:39.287Z,10.90
2022-09-22T06:45:56.515Z,9.28
2022-09-22T06:49:14.689Z,9.68
2022-09-22T06:52:30.902Z,9.45
2022-09-22T06:55:52.497Z,9.55
2022-09-22T06:59:11.054Z,10.23
2022-09-22T07:05:46.598Z,12.83
2022-09-22T07:09:02.840Z,10.25
2022-09-22T07:12:20.947Z,11.60
2022-09-22T07:15:46.067Z,29.95
2022-09-22T07:19:05.717Z,15.18
2022-09-22T07:22:22.613Z,12.08
2022-09-22T07:25:41.176Z,14.90
2022-09-22T07:28:59.924Z,10.28
2022-09-22T07:32:18.726Z,12.15
2022-09-22T07:35:38.764Z,15.10
2022-09-22T07:38:58.205Z,10.60
2022-09-22T07:42:14.922Z,10.03
2022-09-22T07:45:30.975Z,11.43
2022-09-22T07:48:49.656Z,9.80
2022-09-22T07:52:06.140Z,9.20
2022-09-22T07:55:23.049Z,7.95
2022-09-22T07:58:40.723Z,9.08
2022-09-22T08:01:58.914Z,11.83
2022-09-22T08:05:17.351Z,8.88
2022-09-22T08:08:35.349Z,9.10
2022-09-22T08:11:54.844Z,10.53
2022-09-22T08:15:11.841Z,8.43
2022-09-22T08:18:28.210Z,10.10
2022-09-22T08:21:49.664Z,8.90
2022-09-22T08:25:06.730Z,8.85
2022-09-22T08:28:22.721Z,9.90
2022-09-22T08:31:41.952Z,7.63
2022-09-22T08:34:58.870Z,8.35
2022-09-22T08:38:15.197Z,8.95
2022-09-22T08:41:38.997Z,7.45
2022-09-22T08:45:04.935Z,8.68
2022-09-22T08:48:40.450Z,9.58
2022-09-22T08:52:02.102Z,7.70
2022-09-22T08:55:23.814Z,7.18
2022-09-22T08:58:57.095Z,7.53
2022-09-22T09:02:55.859Z,7.65
2022-09-22T09:06:18.962Z,5.75
2022-09-22T09:09:51.157Z,6.30
2022-09-22T09:13:23.066Z,7.83
2022-09-22T09:16:52.450Z,6.40
2022-09-22T09:20:19.760Z,6.40
2022-09-22T09:27:05.307Z,6.25
2022-09-22T09:30:27.365Z,6.98
2022-09-22T09:33:52.866Z,4.73
2022-09-22T09:37:18.747Z,8.35
2022-09-22T09:45:29.759Z,4.35
2022-09-22T09:49:15.671Z,2.60
2022-09-22T09:52:34.287Z,3.88
2022-09-22T09:55:51.422Z,5.43
2022-09-22T09:59:24.672Z,5.38
2022-09-22T10:02:45.119Z,3.50
2022-09-22T10:06:09.859Z,2.95
2022-09-22T10:09:36.374Z,3.05
2022-09-22T10:12:52.504Z,3.53
2022-09-22T10:16:36.965Z,2.70
2022-09-22T10:19:53.107Z,2.38
2022-09-22T10:23:27.935Z,2.35
2022-09-22T10:26:44.108Z,1.85
2022-09-22T10:30:28.400Z,2.33
2022-09-22T10:33:46.219Z,4.28
2022-09-22T10:37:02.901Z,5.05
2022-09-22T10:40:24.421Z,4.05
2022-09-22T10:43:55.830Z,3.93
2022-09-22T10:47:33.155Z,2.50
2022-09-22T10:51:01.410Z,3.48
2022-09-22T10:54:36.641Z,3.33
2022-09-22T10:58:13.845Z,3.45
2022-09-22T11:01:48.381Z,3.00
2022-09-22T11:05:19.550Z,4.20
2022-09-22T11:08:52.363Z,3.85
2022-09-22T11:12:24.343Z,2.80
2022-09-22T11:15:55.141Z,5.00
2022-09-22T11:19:49.567Z,5.00
2022-09-22T11:24:03.054Z,3.30
2022-09-22T11:27:25.075Z,4.20
2022-09-22T11:30:47.998Z,3.88
2022-09-22T11:34:46.366Z,4.88
2022-09-22T11:38:16.667Z,3.93
2022-09-22T11:41:44.484Z,4.13
2022-09-22T11:45:10.903Z,4.40
2022-09-22T11:48:40.745Z,3.65
2022-09-22T11:52:17.298Z,2.70
2022-09-22T11:55:45.134Z,1.98
2022-09-22T11:59:09.532Z,4.03
2022-09-22T12:02:37.946Z,3.60
2022-09-22T12:05:59.184Z,3.80
2022-09-22T12:09:40.865Z,3.78
2022-09-22T12:13:00.448Z,3.18
2022-09-22T12:16:23.265Z,2.60
2022-09-22T12:19:49.358Z,2.10
2022-09-22T12:23:36.775Z,3.83
2022-09-22T12:26:56.351Z,2.50
2022-09-22T12:30:27.184Z,3.98
2022-09-22T12:33:57.391Z,3.73
2022-09-22T12:37:36.550Z,3.13
2022-09-22T12:40:58.514Z,5.03
2022-09-22T12:44:30.340Z,3.05
2022-09-22T12:48:03.183Z,4.40
2022-09-22T12:51:39.859Z,3.20
2022-09-22T12:54:59.135Z,3.68
2022-09-22T12:58:48.588Z,5.10
2022-09-22T13:02:43.037Z,3.48
2022-09-22T13:06:05.100Z,3.45
2022-09-22T13:09:31.738Z,2.63
2022-09-22T13:12:55.858Z,2.28
2022-09-22T13:16:33.286Z,2.48
2022-09-22T13:20:04.522Z,2.75
2022-09-22T13:23:23.084Z,2.30
2022-09-22T13:26:44.737Z,2.53
2022-09-22T13:30:12.222Z,2.08
2022-09-22T13:33:34.501Z,3.68
2022-09-22T13:36:53.885Z,2.40
2022-09-22T13:40:12.142Z,2.70
2022-09-22T13:43:42.807Z,2.30
2022-09-22T13:47:01.431Z,2.70
2022-09-22T13:50:33.663Z,4.40
2022-09-22T13:53:56.315Z,3.63
2022-09-22T13:57:25.075Z,3.68
2022-09-22T14:01:12.203Z,2.33
2022-09-22T14:04:28.644Z,2.60
2022-09-22T14:08:01.267Z,2.95
2022-09-22T14:11:08.368Z,3.35
2022-09-22T14:14:36.653Z,5.28
2022-09-22T14:18:04.575Z,3.85
2022-09-22T14:21:23.132Z,4.13
2022-09-22T14:24:43.108Z,7.45
2022-09-22T14:28:07.366Z,5.78
2022-09-22T14:31:29.086Z,4.50
2022-09-22T14:34:50.586Z,5.05
2022-09-22T14:38:19.971Z,6.63
2022-09-22T14:41:34.481Z,5.10
2022-09-22T14:44:56.721Z,5.48
2022-09-22T14:48:39.175Z,3.98
2022-09-22T14:51:57.519Z,3.75
2022-09-22T14:55:25.788Z,3.53
2022-09-22T14:58:46.100Z,3.43
2022-09-22T15:02:26.594Z,5.23
2022-09-22T15:05:45.141Z,4.20
2022-09-22T15:09:04.194Z,4.18
2022-09-22T15:12:49.352Z,9.73
2022-09-22T15:16:07.093Z,3.60
2022-09-22T15:19:23.753Z,4.55
2022-09-22T15:22:40.782Z,3.75
2022-09-22T15:25:58.505Z,4.48
2022-09-22T15:29:18.077Z,3.33
2022-09-22T15:32:34.617Z,6.60
2022-09-22T15:36:00.493Z,6.18
2022-09-22T15:39:22.160Z,4.78
2022-09-22T15:42:48.231Z,6.20
2022-09-22T15:45:59.418Z,6.35
2022-09-22T15:49:23.661Z,5.98
2022-09-22T15:52:40.080Z,5.33
2022-09-22T15:55:58.802Z,6.48
2022-09-22T15:59:20.317Z,7.08
2022-09-22T16:02:44.743Z,5.88
2022-09-22T16:06:06.690Z,8.38
2022-09-22T16:09:25.353Z,8.73
2022-09-22T16:12:42.525Z,6.35
2022-09-22T16:16:03.740Z,7.05
2022-09-22T16:19:29.080Z,6.80
2022-09-22T16:22:51.712Z,7.10
2022-09-22T16:26:08.613Z,6.23
2022-09-22T16:29:30.156Z,7.68
2022-09-22T16:32:46.890Z,5.63
2022-09-22T16:36:11.110Z,5.55
2022-09-22T16:39:43.440Z,5.68
2022-09-22T16:43:01.414Z,8.33
2022-09-22T16:46:34.866Z,5.88
2022-09-22T16:49:59.640Z,6.05
2022-09-22T16:53:18.776Z,6.75
2022-09-22T16:56:50.749Z,9.00
2022-09-22T17:00:24.417Z,8.48
2022-09-22T17:03:42.366Z,5.83
2022-09-22T17:06:59.456Z,6.48
2022-09-22T17:10:21.423Z,5.58
2022-09-22T17:13:58.905Z,6.75
2022-09-22T17:17:23.961Z,6.20
2022-09-22T17:20:50.969Z,6.58
2022-09-22T17:24:14.493Z,6.50
2022-09-22T17:27:34.510Z,5.43
2022-09-22T17:31:12.812Z,7.28
2022-09-22T17:34:51.732Z,58.63
2022-09-22T17:38:29.516Z,19.53
2022-09-22T17:41:56.320Z,13.30
2022-09-22T17:45:21.004Z,10.68
2022-09-22T17:48:51.869Z,7.85
2022-09-22T17:52:38.775Z,7.03
2022-09-22T17:56:10.443Z,9.20
2022-09-22T17:59:35.412Z,8.43
2022-09-22T18:03:09.304Z,11.40
2022-09-22T18:06:49.541Z,9.78
2022-09-22T18:10:15.912Z,9.93
2022-09-22T18:13:39.533Z,12.55
2022-09-22T18:17:01.980Z,11.70
2022-09-22T18:20:25.231Z,9.00
2022-09-22T18:23:49.195Z,13.30
2022-09-22T18:27:23.197Z,11.28
2022-09-22T18:31:04.452Z,10.55
2022-09-22T18:34:30.618Z,11.50
2022-09-22T18:38:04.324Z,10.35
2022-09-22T18:41:24.524Z,11.08
2022-09-22T18:44:55.961Z,12.55
2022-09-22T18:48:36.949Z,11.08
2022-09-22T18:52:07.018Z,13.58
2022-09-22T18:58:41.705Z,11.50
2022-09-22T19:02:01.507Z,11.30
2022-09-22T19:05:24.603Z,11.70
2022-09-22T19:08:42.104Z,11.90
2022-09-22T19:12:02.552Z,14.10
2022-09-22T19:15:27.510Z,14.28
2022-09-22T19:18:52.267Z,13.43
2022-09-22T19:22:13.980Z,15.08
2022-09-22T19:25:38.475Z,13.70
2022-09-22T19:29:01.843Z,15.88
2022-09-22T19:32:31.174Z,13.73
2022-09-22T19:36:00.346Z,15.70
2022-09-22T19:39:25.992Z,14.55
2022-09-22T19:42:49.456Z,13.90
2022-09-22T19:46:06.483Z,15.08
2022-09-22T19:49:26.358Z,15.30
2022-09-22T19:52:49.062Z,13.23
2022-09-22T19:56:14.790Z,15.50
2022-09-22T19:59:38.580Z,14.50
2022-09-22T20:03:07.206Z,16.85
2022-09-22T20:06:29.405Z,16.05
2022-09-22T20:09:51.558Z,15.83
2022-09-22T20:13:14.725Z,18.18
2022-09-22T20:16:42.519Z,16.43
2022-09-22T20:19:59.870Z,18.95
2022-09-22T20:23:27.164Z,16.83
2022-09-22T20:26:43.592Z,18.95
2022-09-22T20:30:00.575Z,16.45
2022-09-22T20:33:23.347Z,18.28
2022-09-22T20:36:40.225Z,16.80
2022-09-22T20:39:59.098Z,15.20
2022-09-22T20:43:17.953Z,15.43
2022-09-22T20:46:34.819Z,14.90
2022-09-22T20:49:52.144Z,14.35
2022-09-22T20:53:09.748Z,20.52
2022-09-22T20:56:26.137Z,15.20
2022-09-22T20:59:44.388Z,16.73
2022-09-22T21:03:02.810Z,16.10
2022-09-22T21:06:20.709Z,17.38
2022-09-22T21:09:51.256Z,18.45
2022-09-22T21:13:07.782Z,16.43
2022-09-22T21:16:24.362Z,17.25
2022-09-22T21:19:41.224Z,15.33
2022-09-22T21:22:59.345Z,16.73
2022-09-22T21:26:17.604Z,17.58
2022-09-22T21:29:34.081Z,17.48
2022-09-22T21:32:50.585Z,15.33
2022-09-22T21:36:17.911Z,16.20
2022-09-22T21:39:33.921Z,17.93
2022-09-22T21:42:51.727Z,18.23
2022-09-22T21:46:11.920Z,18.93
2022-09-22T21:49:29.550Z,16.48
2022-09-22T21:52:47.149Z,15.00
2022-09-22T21:56:11.944Z,18.13
2022-09-22T21:59:28.526Z,16.48
2022-09-22T22:02:54.676Z,15.13
2022-09-22T22:06:14.563Z,15.43
2022-09-22T22:09:31.516Z,16.60
2022-09-22T22:12:50.333Z,16.43
2022-09-22T22:16:10.024Z,17.93
2022-09-22T22:19:29.181Z,17.50
2022-09-22T22:22:45.640Z,17.98
2022-09-22T22:26:08.531Z,16.03
2022-09-22T22:29:26.098Z,17.43
2022-09-22T22:32:43.176Z,17.48
2022-09-22T22:36:04.182Z,18.58
2022-09-22T22:39:21.117Z,16.90
2022-09-22T22:42:37.200Z,17.70
2022-09-22T22:45:54.345Z,18.20
2022-09-22T22:49:12.473Z,17.95
2022-09-22T22:52:28.611Z,18.78
2022-09-22T22:55:46.274Z,17.08
2022-09-22T22:59:03.207Z,19.85
2022-09-22T23:02:19.327Z,17.65
2022-09-22T23:05:39.536Z,18.45
2022-09-22T23:08:54.534Z,19.50
2022-09-22T23:12:11.634Z,19.50
2022-09-22T23:15:27.970Z,18.88
2022-09-22T23:18:46.386Z,17.70
2022-09-22T23:22:03.690Z,18.87
2022-09-22T23:25:20.887Z,18.50
2022-09-22T23:28:38.784Z,20.88
2022-09-22T23:31:54.844Z,21.85
2022-09-22T23:35:11.828Z,22.35
2022-09-22T23:38:28.169Z,21.08
2022-09-22T23:41:44.927Z,19.68
2022-09-22T23:45:01.033Z,19.28
2022-09-22T23:48:17.801Z,18.53
2022-09-22T23:51:33.714Z,22.88
2022-09-22T23:54:49.678Z,19.43
2022-09-22T23:58:06.094Z,19.13
